sensor_id;sensor_type;location;lat;lon;timestamp;temperature;humidity
10451;DHT22;5273;51.290;6.918;2023-08-06T00:00:37;15.70;99.90
10451;DHT22;5273;51.290;6.918;2023-08-06T00:03:04;15.70;99.90
10451;DHT22;5273;51.290;6.918;2023-08-06T00:05:31;15.60;99.90
10451;DHT22;5273;51.290;6.918;2023-08-06T00:07:59;15.70;99.90
10451;DHT22;5273;51.290;6.918;2023-08-06T00:10:26;15.70;99.90
10451;DHT22;5273;51.290;6.918;2023-08-06T00:12:52;15.70;99.90
10451;DHT22;5273;51.290;6.918;2023-08-06T00:15:19;15.70;99.90
10451;DHT22;5273;51.290;6.918;2023-08-06T00:17:46;15.70;99.90
10451;DHT22;5273;51.290;6.918;2023-08-06T00:20:13;15.70;99.90
10451;DHT22;5273;51.290;6.918;2023-08-06T00:22:40;15.70;99.90
10451;DHT22;5273;51.290;6.918;2023-08-06T00:25:08;15.70;99.90
10451;DHT22;5273;51.290;6.918;2023-08-06T00:27:35;15.70;99.90
10451;DHT22;5273;51.290;6.918;2023-08-06T00:30:03;15.70;99.90
10451;DHT22;5273;51.290;6.918;2023-08-06T00:32:30;15.70;99.90
10451;DHT22;5273;51.290;6.918;2023-08-06T00:34:57;15.70;99.90
10451;DHT22;5273;51.290;6.918;2023-08-06T00:37:23;15.70;99.90
10451;DHT22;5273;51.290;6.918;2023-08-06T00:39:50;15.70;99.90
10451;DHT22;5273;51.290;6.918;2023-08-06T00:42:18;15.70;99.90
10451;DHT22;5273;51.290;6.918;2023-08-06T00:44:46;15.60;99.90
10451;DHT22;5273;51.290;6.918;2023-08-06T00:47:13;15.50;99.90
10451;DHT22;5273;51.290;6.918;2023-08-06T00:49:40;15.40;99.90
10451;DHT22;5273;51.290;6.918;2023-08-06T00:52:08;15.40;99.90
10451;DHT22;5273;51.290;6.918;2023-08-06T00:57:02;15.30;99.90
10451;DHT22;5273;51.290;6.918;2023-08-06T00:59:31;15.30;99.90
10451;DHT22;5273;51.290;6.918;2023-08-06T01:07:01;15.20;99.90
10451;DHT22;5273;51.290;6.918;2023-08-06T01:09:35;15.20;99.90
10451;DHT22;5273;51.290;6.918;2023-08-06T01:12:09;15.20;99.90
10451;DHT22;5273;51.290;6.918;2023-08-06T01:14:47;15.20;99.90
10451;DHT22;5273;51.290;6.918;2023-08-06T01:22:13;15.20;99.90
10451;DHT22;5273;51.290;6.918;2023-08-06T01:24:45;15.30;99.90
10451;DHT22;5273;51.290;6.918;2023-08-06T01:27:17;15.30;99.90
10451;DHT22;5273;51.290;6.918;2023-08-06T01:29:56;15.30;99.90
10451;DHT22;5273;51.290;6.918;2023-08-06T01:32:24;15.30;99.90
10451;DHT22;5273;51.290;6.918;2023-08-06T01:34:51;15.30;99.90
10451;DHT22;5273;51.290;6.918;2023-08-06T01:37:20;15.60;99.90
10451;DHT22;5273;51.290;6.918;2023-08-06T01:39:47;15.30;99.90
10451;DHT22;5273;51.290;6.918;2023-08-06T01:42:14;15.30;99.90
10451;DHT22;5273;51.290;6.918;2023-08-06T01:44:41;15.20;99.90
10451;DHT22;5273;51.290;6.918;2023-08-06T01:47:07;14.90;99.90
10451;DHT22;5273;51.290;6.918;2023-08-06T01:49:34;15.10;99.90
10451;DHT22;5273;51.290;6.918;2023-08-06T01:52:01;15.60;99.90
10451;DHT22;5273;51.290;6.918;2023-08-06T01:54:29;15.30;99.90
10451;DHT22;5273;51.290;6.918;2023-08-06T02:11:41;15.40;99.90
10451;DHT22;5273;51.290;6.918;2023-08-06T02:14:07;15.30;99.90
10451;DHT22;5273;51.290;6.918;2023-08-06T02:16:34;15.30;99.90
10451;DHT22;5273;51.290;6.918;2023-08-06T02:19:01;15.40;99.90
10451;DHT22;5273;51.290;6.918;2023-08-06T02:21:28;15.40;99.90
10451;DHT22;5273;51.290;6.918;2023-08-06T02:23:55;15.30;99.90
10451;DHT22;5273;51.290;6.918;2023-08-06T02:26:21;16.10;99.90
10451;DHT22;5273;51.290;6.918;2023-08-06T02:28:50;15.30;99.90
10451;DHT22;5273;51.290;6.918;2023-08-06T02:31:16;15.30;99.90
10451;DHT22;5273;51.290;6.918;2023-08-06T02:33:43;15.30;99.90
10451;DHT22;5273;51.290;6.918;2023-08-06T02:46:00;15.30;99.90
10451;DHT22;5273;51.290;6.918;2023-08-06T02:50:57;15.30;99.90
10451;DHT22;5273;51.290;6.918;2023-08-06T03:01:00;15.50;99.90
10451;DHT22;5273;51.290;6.918;2023-08-06T03:03:28;15.40;99.90
10451;DHT22;5273;51.290;6.918;2023-08-06T03:05:55;15.30;99.90
10451;DHT22;5273;51.290;6.918;2023-08-06T03:08:22;15.30;99.90
10451;DHT22;5273;51.290;6.918;2023-08-06T03:10:49;15.20;99.90
10451;DHT22;5273;51.290;6.918;2023-08-06T03:13:16;15.30;99.90
10451;DHT22;5273;51.290;6.918;2023-08-06T03:15:43;15.30;99.90
10451;DHT22;5273;51.290;6.918;2023-08-06T03:18:11;15.30;99.90
10451;DHT22;5273;51.290;6.918;2023-08-06T03:20:38;15.30;99.90
10451;DHT22;5273;51.290;6.918;2023-08-06T03:23:05;15.30;99.90
10451;DHT22;5273;51.290;6.918;2023-08-06T03:25:35;15.30;99.90
10451;DHT22;5273;51.290;6.918;2023-08-06T03:28:02;15.30;99.90
10451;DHT22;5273;51.290;6.918;2023-08-06T03:30:29;15.30;99.90
10451;DHT22;5273;51.290;6.918;2023-08-06T03:32:56;15.30;99.90
10451;DHT22;5273;51.290;6.918;2023-08-06T03:35:24;15.30;99.90
10451;DHT22;5273;51.290;6.918;2023-08-06T03:37:50;16.10;99.90
10451;DHT22;5273;51.290;6.918;2023-08-06T03:40:17;15.30;99.90
10451;DHT22;5273;51.290;6.918;2023-08-06T03:42:44;15.20;99.90
10451;DHT22;5273;51.290;6.918;2023-08-06T03:45:11;15.30;99.90
10451;DHT22;5273;51.290;6.918;2023-08-06T03:47:38;15.30;99.90
10451;DHT22;5273;51.290;6.918;2023-08-06T03:50:05;15.30;99.90
10451;DHT22;5273;51.290;6.918;2023-08-06T03:52:33;15.20;99.90
10451;DHT22;5273;51.290;6.918;2023-08-06T03:55:00;15.30;99.90
10451;DHT22;5273;51.290;6.918;2023-08-06T03:57:28;15.20;99.90
10451;DHT22;5273;51.290;6.918;2023-08-06T03:59:54;15.20;99.90
10451;DHT22;5273;51.290;6.918;2023-08-06T04:02:21;15.30;99.90
10451;DHT22;5273;51.290;6.918;2023-08-06T04:04:48;15.20;99.90
10451;DHT22;5273;51.290;6.918;2023-08-06T04:07:15;15.60;99.90
10451;DHT22;5273;51.290;6.918;2023-08-06T04:09:58;15.20;99.90
10451;DHT22;5273;51.290;6.918;2023-08-06T04:12:25;15.20;99.90
10451;DHT22;5273;51.290;6.918;2023-08-06T04:14:52;15.20;99.90
10451;DHT22;5273;51.290;6.918;2023-08-06T04:17:19;15.20;99.90
10451;DHT22;5273;51.290;6.918;2023-08-06T04:19:47;15.20;99.90
10451;DHT22;5273;51.290;6.918;2023-08-06T04:22:14;15.20;99.90
10451;DHT22;5273;51.290;6.918;2023-08-06T04:24:41;15.20;99.90
10451;DHT22;5273;51.290;6.918;2023-08-06T04:27:11;15.20;99.90
10451;DHT22;5273;51.290;6.918;2023-08-06T04:29:38;15.20;99.90
10451;DHT22;5273;51.290;6.918;2023-08-06T04:32:07;15.20;99.90
10451;DHT22;5273;51.290;6.918;2023-08-06T04:34:34;15.20;99.90
10451;DHT22;5273;51.290;6.918;2023-08-06T04:37:02;15.10;99.90
10451;DHT22;5273;51.290;6.918;2023-08-06T04:39:29;15.20;99.90
10451;DHT22;5273;51.290;6.918;2023-08-06T04:41:56;15.20;99.90
10451;DHT22;5273;51.290;6.918;2023-08-06T04:44:24;15.20;99.90
10451;DHT22;5273;51.290;6.918;2023-08-06T04:46:51;15.20;99.90
10451;DHT22;5273;51.290;6.918;2023-08-06T04:49:19;15.30;99.90
10451;DHT22;5273;51.290;6.918;2023-08-06T04:51:46;15.30;99.90
10451;DHT22;5273;51.290;6.918;2023-08-06T04:54:12;15.30;99.90
10451;DHT22;5273;51.290;6.918;2023-08-06T04:56:39;14.90;99.90
10451;DHT22;5273;51.290;6.918;2023-08-06T04:59:06;15.40;99.90
10451;DHT22;5273;51.290;6.918;2023-08-06T05:01:34;15.40;99.90
10451;DHT22;5273;51.290;6.918;2023-08-06T05:04:01;15.50;99.90
10451;DHT22;5273;51.290;6.918;2023-08-06T05:06:28;15.50;99.90
10451;DHT22;5273;51.290;6.918;2023-08-06T05:08:55;15.60;99.90
10451;DHT22;5273;51.290;6.918;2023-08-06T05:11:21;15.50;99.90
10451;DHT22;5273;51.290;6.918;2023-08-06T05:13:49;15.70;99.90
10451;DHT22;5273;51.290;6.918;2023-08-06T05:16:16;15.70;99.90
10451;DHT22;5273;51.290;6.918;2023-08-06T05:18:44;15.80;99.90
10451;DHT22;5273;51.290;6.918;2023-08-06T05:21:11;15.90;99.90
10451;DHT22;5273;51.290;6.918;2023-08-06T05:23:38;15.90;99.90
10451;DHT22;5273;51.290;6.918;2023-08-06T05:26:04;15.90;99.90
10451;DHT22;5273;51.290;6.918;2023-08-06T05:28:31;15.90;99.90
10451;DHT22;5273;51.290;6.918;2023-08-06T05:30:58;16.40;99.90
10451;DHT22;5273;51.290;6.918;2023-08-06T05:33:25;16.60;99.90
10451;DHT22;5273;51.290;6.918;2023-08-06T05:35:53;16.10;99.90
10451;DHT22;5273;51.290;6.918;2023-08-06T05:38:19;16.10;99.90
10451;DHT22;5273;51.290;6.918;2023-08-06T05:40:46;16.10;99.90
10451;DHT22;5273;51.290;6.918;2023-08-06T05:43:14;16.00;99.90
10451;DHT22;5273;51.290;6.918;2023-08-06T05:45:44;16.10;99.90
10451;DHT22;5273;51.290;6.918;2023-08-06T05:48:11;16.10;99.90
10451;DHT22;5273;51.290;6.918;2023-08-06T05:50:38;16.40;99.90
10451;DHT22;5273;51.290;6.918;2023-08-06T05:53:06;16.30;99.90
10451;DHT22;5273;51.290;6.918;2023-08-06T05:55:33;16.50;99.90
10451;DHT22;5273;51.290;6.918;2023-08-06T05:58:01;16.60;99.90
10451;DHT22;5273;51.290;6.918;2023-08-06T06:00:28;17.10;99.90
10451;DHT22;5273;51.290;6.918;2023-08-06T06:02:54;16.80;99.90
10451;DHT22;5273;51.290;6.918;2023-08-06T06:05:21;16.80;99.90
10451;DHT22;5273;51.290;6.918;2023-08-06T06:07:48;16.90;99.90
10451;DHT22;5273;51.290;6.918;2023-08-06T06:10:16;16.90;99.90
10451;DHT22;5273;51.290;6.918;2023-08-06T06:12:43;17.10;99.90
10451;DHT22;5273;51.290;6.918;2023-08-06T06:15:10;17.20;99.90
10451;DHT22;5273;51.290;6.918;2023-08-06T06:17:37;17.30;99.90
10451;DHT22;5273;51.290;6.918;2023-08-06T06:20:05;17.50;99.90
10451;DHT22;5273;51.290;6.918;2023-08-06T06:22:32;17.70;99.90
10451;DHT22;5273;51.290;6.918;2023-08-06T06:24:58;17.90;99.90
10451;DHT22;5273;51.290;6.918;2023-08-06T06:27:26;18.10;99.90
10451;DHT22;5273;51.290;6.918;2023-08-06T06:29:53;18.30;99.90
10451;DHT22;5273;51.290;6.918;2023-08-06T06:32:21;18.50;99.90
10451;DHT22;5273;51.290;6.918;2023-08-06T06:34:48;17.40;99.90
10451;DHT22;5273;51.290;6.918;2023-08-06T06:37:14;18.80;99.90
10451;DHT22;5273;51.290;6.918;2023-08-06T06:39:41;18.90;99.90
10451;DHT22;5273;51.290;6.918;2023-08-06T06:42:09;19.60;99.90
10451;DHT22;5273;51.290;6.918;2023-08-06T06:44:37;20.30;99.90
10451;DHT22;5273;51.290;6.918;2023-08-06T06:47:04;21.00;99.90
10451;DHT22;5273;51.290;6.918;2023-08-06T06:49:31;21.30;99.90
10451;DHT22;5273;51.290;6.918;2023-08-06T06:51:58;21.70;99.90
10451;DHT22;5273;51.290;6.918;2023-08-06T06:54:24;22.10;99.90
10451;DHT22;5273;51.290;6.918;2023-08-06T06:56:51;22.80;99.90
10451;DHT22;5273;51.290;6.918;2023-08-06T06:59:18;23.80;99.90
10451;DHT22;5273;51.290;6.918;2023-08-06T07:01:46;25.00;98.20
10451;DHT22;5273;51.290;6.918;2023-08-06T07:04:13;26.20;95.50
10451;DHT22;5273;51.290;6.918;2023-08-06T07:06:40;27.20;91.90
10451;DHT22;5273;51.290;6.918;2023-08-06T07:09:06;28.10;88.70
10451;DHT22;5273;51.290;6.918;2023-08-06T07:11:33;29.10;84.80
10451;DHT22;5273;51.290;6.918;2023-08-06T07:14:00;30.00;79.40
10451;DHT22;5273;51.290;6.918;2023-08-06T07:16:27;30.90;74.90
10451;DHT22;5273;51.290;6.918;2023-08-06T07:18:56;31.50;70.40
10451;DHT22;5273;51.290;6.918;2023-08-06T07:21:22;31.30;67.40
10451;DHT22;5273;51.290;6.918;2023-08-06T07:23:49;30.20;67.60
10451;DHT22;5273;51.290;6.918;2023-08-06T07:26:16;29.70;69.50
10451;DHT22;5273;51.290;6.918;2023-08-06T07:28:43;28.80;72.10
10451;DHT22;5273;51.290;6.918;2023-08-06T07:31:10;28.00;74.30
10451;DHT22;5273;51.290;6.918;2023-08-06T07:33:36;27.20;77.30
10451;DHT22;5273;51.290;6.918;2023-08-06T07:36:09;26.50;79.50
10451;DHT22;5273;51.290;6.918;2023-08-06T07:38:36;25.90;81.70
10451;DHT22;5273;51.290;6.918;2023-08-06T07:41:03;25.40;84.90
10451;DHT22;5273;51.290;6.918;2023-08-06T07:43:30;25.00;86.40
10451;DHT22;5273;51.290;6.918;2023-08-06T07:45:58;24.80;87.60
10451;DHT22;5273;51.290;6.918;2023-08-06T07:48:25;24.80;87.70
10451;DHT22;5273;51.290;6.918;2023-08-06T07:50:52;24.80;88.00
10451;DHT22;5273;51.290;6.918;2023-08-06T07:53:20;24.70;89.50
10451;DHT22;5273;51.290;6.918;2023-08-06T07:55:49;24.60;89.90
10451;DHT22;5273;51.290;6.918;2023-08-06T07:58:17;24.70;89.50
10451;DHT22;5273;51.290;6.918;2023-08-06T08:00:43;24.60;90.00
10451;DHT22;5273;51.290;6.918;2023-08-06T08:03:11;24.50;90.00
10451;DHT22;5273;51.290;6.918;2023-08-06T08:05:38;24.40;90.10
10451;DHT22;5273;51.290;6.918;2023-08-06T08:08:05;24.30;90.30
10451;DHT22;5273;51.290;6.918;2023-08-06T08:10:34;24.20;90.60
10451;DHT22;5273;51.290;6.918;2023-08-06T08:13:01;24.00;90.80
10451;DHT22;5273;51.290;6.918;2023-08-06T08:15:29;23.80;90.70
10451;DHT22;5273;51.290;6.918;2023-08-06T08:17:56;23.70;90.40
10451;DHT22;5273;51.290;6.918;2023-08-06T08:20:23;23.70;91.40
10451;DHT22;5273;51.290;6.918;2023-08-06T08:22:50;23.60;91.70
10451;DHT22;5273;51.290;6.918;2023-08-06T08:25:16;23.50;91.60
10451;DHT22;5273;51.290;6.918;2023-08-06T08:27:45;23.60;92.10
10451;DHT22;5273;51.290;6.918;2023-08-06T08:30:12;23.50;92.20
10451;DHT22;5273;51.290;6.918;2023-08-06T08:32:39;23.40;92.60
10451;DHT22;5273;51.290;6.918;2023-08-06T08:35:06;23.20;93.40
10451;DHT22;5273;51.290;6.918;2023-08-06T08:37:32;23.10;93.50
10451;DHT22;5273;51.290;6.918;2023-08-06T08:39:59;22.90;93.70
10451;DHT22;5273;51.290;6.918;2023-08-06T08:42:26;22.90;93.90
10451;DHT22;5273;51.290;6.918;2023-08-06T08:44:55;22.70;94.10
10451;DHT22;5273;51.290;6.918;2023-08-06T08:47:24;23.50;94.60
10451;DHT22;5273;51.290;6.918;2023-08-06T08:49:54;22.50;94.30
10451;DHT22;5273;51.290;6.918;2023-08-06T08:52:21;22.50;95.20
10451;DHT22;5273;51.290;6.918;2023-08-06T08:54:49;22.30;96.30
10451;DHT22;5273;51.290;6.918;2023-08-06T08:57:18;22.20;97.20
10451;DHT22;5273;51.290;6.918;2023-08-06T08:59:45;22.00;97.70
10451;DHT22;5273;51.290;6.918;2023-08-06T09:02:15;21.90;98.40
10451;DHT22;5273;51.290;6.918;2023-08-06T09:04:42;21.70;99.30
10451;DHT22;5273;51.290;6.918;2023-08-06T09:07:13;21.60;99.90
10451;DHT22;5273;51.290;6.918;2023-08-06T09:09:43;21.60;99.90
10451;DHT22;5273;51.290;6.918;2023-08-06T09:12:14;21.50;99.90
10451;DHT22;5273;51.290;6.918;2023-08-06T09:14:42;21.50;99.90
10451;DHT22;5273;51.290;6.918;2023-08-06T09:17:09;20.10;99.90
10451;DHT22;5273;51.290;6.918;2023-08-06T09:19:37;21.50;99.90
10451;DHT22;5273;51.290;6.918;2023-08-06T09:22:04;21.60;99.90
10451;DHT22;5273;51.290;6.918;2023-08-06T09:24:38;21.70;99.90
10451;DHT22;5273;51.290;6.918;2023-08-06T09:27:10;21.90;99.90
10451;DHT22;5273;51.290;6.918;2023-08-06T09:29:40;21.80;99.90
10451;DHT22;5273;51.290;6.918;2023-08-06T09:32:08;21.80;99.90
10451;DHT22;5273;51.290;6.918;2023-08-06T09:34:38;21.70;99.90
10451;DHT22;5273;51.290;6.918;2023-08-06T09:37:05;21.50;99.90
10451;DHT22;5273;51.290;6.918;2023-08-06T09:39:31;21.50;99.90
10451;DHT22;5273;51.290;6.918;2023-08-06T09:42:00;21.40;99.90
10451;DHT22;5273;51.290;6.918;2023-08-06T09:44:27;21.30;99.90
10451;DHT22;5273;51.290;6.918;2023-08-06T09:46:55;21.30;99.90
10451;DHT22;5273;51.290;6.918;2023-08-06T09:49:25;21.20;99.90
10451;DHT22;5273;51.290;6.918;2023-08-06T09:51:54;21.10;99.90
10451;DHT22;5273;51.290;6.918;2023-08-06T09:54:24;21.10;99.90
10451;DHT22;5273;51.290;6.918;2023-08-06T09:56:52;21.20;99.90
10451;DHT22;5273;51.290;6.918;2023-08-06T09:59:19;21.40;99.90
10451;DHT22;5273;51.290;6.918;2023-08-06T10:01:47;21.80;99.90
10451;DHT22;5273;51.290;6.918;2023-08-06T10:04:14;22.00;99.90
10451;DHT22;5273;51.290;6.918;2023-08-06T10:06:45;22.10;99.90
10451;DHT22;5273;51.290;6.918;2023-08-06T10:09:15;22.10;99.90
10451;DHT22;5273;51.290;6.918;2023-08-06T10:11:42;22.10;99.90
10451;DHT22;5273;51.290;6.918;2023-08-06T10:14:13;22.00;99.90
10451;DHT22;5273;51.290;6.918;2023-08-06T10:16:41;21.80;99.90
10451;DHT22;5273;51.290;6.918;2023-08-06T10:19:10;21.70;99.90
10451;DHT22;5273;51.290;6.918;2023-08-06T10:21:38;21.60;99.90
10451;DHT22;5273;51.290;6.918;2023-08-06T10:24:07;21.20;99.90
10451;DHT22;5273;51.290;6.918;2023-08-06T10:26:36;20.90;99.90
10451;DHT22;5273;51.290;6.918;2023-08-06T10:29:36;20.70;99.90
10451;DHT22;5273;51.290;6.918;2023-08-06T10:32:04;20.50;99.90
10451;DHT22;5273;51.290;6.918;2023-08-06T10:34:56;20.20;99.90
10451;DHT22;5273;51.290;6.918;2023-08-06T10:37:23;19.90;99.90
10451;DHT22;5273;51.290;6.918;2023-08-06T10:39:51;19.50;99.90
10451;DHT22;5273;51.290;6.918;2023-08-06T10:42:27;19.20;99.90
10451;DHT22;5273;51.290;6.918;2023-08-06T10:45:17;18.90;99.90
10451;DHT22;5273;51.290;6.918;2023-08-06T10:47:44;18.60;99.90
10451;DHT22;5273;51.290;6.918;2023-08-06T10:50:12;18.40;99.90
10451;DHT22;5273;51.290;6.918;2023-08-06T10:52:42;18.20;99.90
10451;DHT22;5273;51.290;6.918;2023-08-06T10:55:09;18.00;99.90
10451;DHT22;5273;51.290;6.918;2023-08-06T10:57:37;18.00;99.90
10451;DHT22;5273;51.290;6.918;2023-08-06T11:00:05;18.10;99.90
10451;DHT22;5273;51.290;6.918;2023-08-06T11:02:33;17.70;99.90
10451;DHT22;5273;51.290;6.918;2023-08-06T11:05:05;17.60;99.90
10451;DHT22;5273;51.290;6.918;2023-08-06T11:07:32;17.50;99.90
10451;DHT22;5273;51.290;6.918;2023-08-06T11:10:02;17.40;99.90
10451;DHT22;5273;51.290;6.918;2023-08-06T11:12:29;17.30;99.90
10451;DHT22;5273;51.290;6.918;2023-08-06T11:14:57;17.20;99.90
10451;DHT22;5273;51.290;6.918;2023-08-06T11:17:24;17.10;99.90
10451;DHT22;5273;51.290;6.918;2023-08-06T11:19:52;17.00;99.90
10451;DHT22;5273;51.290;6.918;2023-08-06T11:22:19;16.90;99.90
10451;DHT22;5273;51.290;6.918;2023-08-06T11:24:46;16.90;99.90
10451;DHT22;5273;51.290;6.918;2023-08-06T11:27:13;16.90;99.90
10451;DHT22;5273;51.290;6.918;2023-08-06T11:29:40;16.80;99.90
10451;DHT22;5273;51.290;6.918;2023-08-06T11:32:09;16.70;99.90
10451;DHT22;5273;51.290;6.918;2023-08-06T11:34:37;16.60;99.90
10451;DHT22;5273;51.290;6.918;2023-08-06T11:37:04;16.60;99.90
10451;DHT22;5273;51.290;6.918;2023-08-06T11:39:32;16.50;99.90
10451;DHT22;5273;51.290;6.918;2023-08-06T11:41:59;16.50;99.90
10451;DHT22;5273;51.290;6.918;2023-08-06T11:44:30;16.40;99.90
10451;DHT22;5273;51.290;6.918;2023-08-06T11:46:58;16.50;99.90
10451;DHT22;5273;51.290;6.918;2023-08-06T11:49:42;15.70;99.90
10451;DHT22;5273;51.290;6.918;2023-08-06T11:52:13;16.40;99.90
10451;DHT22;5273;51.290;6.918;2023-08-06T11:54:40;16.40;99.90
10451;DHT22;5273;51.290;6.918;2023-08-06T11:57:10;16.40;99.90
10451;DHT22;5273;51.290;6.918;2023-08-06T11:59:38;16.30;99.90
10451;DHT22;5273;51.290;6.918;2023-08-06T12:02:08;16.30;99.90
10451;DHT22;5273;51.290;6.918;2023-08-06T12:05:03;16.30;99.90
10451;DHT22;5273;51.290;6.918;2023-08-06T12:07:32;16.30;99.90
10451;DHT22;5273;51.290;6.918;2023-08-06T12:10:00;16.40;99.90
10451;DHT22;5273;51.290;6.918;2023-08-06T12:12:27;16.40;99.90
10451;DHT22;5273;51.290;6.918;2023-08-06T12:14:54;16.40;99.90
10451;DHT22;5273;51.290;6.918;2023-08-06T12:17:22;16.40;99.90
10451;DHT22;5273;51.290;6.918;2023-08-06T12:19:49;16.40;99.90
10451;DHT22;5273;51.290;6.918;2023-08-06T12:22:17;16.40;99.90
10451;DHT22;5273;51.290;6.918;2023-08-06T12:24:45;16.40;99.90
10451;DHT22;5273;51.290;6.918;2023-08-06T12:27:13;16.40;99.90
10451;DHT22;5273;51.290;6.918;2023-08-06T12:29:41;16.30;99.90
10451;DHT22;5273;51.290;6.918;2023-08-06T12:32:08;16.30;99.90
10451;DHT22;5273;51.290;6.918;2023-08-06T12:34:35;16.30;99.90
10451;DHT22;5273;51.290;6.918;2023-08-06T12:37:02;16.30;99.90
10451;DHT22;5273;51.290;6.918;2023-08-06T12:39:34;16.30;99.90
10451;DHT22;5273;51.290;6.918;2023-08-06T12:42:01;16.30;99.90
10451;DHT22;5273;51.290;6.918;2023-08-06T12:44:28;16.40;99.90
10451;DHT22;5273;51.290;6.918;2023-08-06T12:46:55;16.30;99.90
10451;DHT22;5273;51.290;6.918;2023-08-06T12:49:22;16.30;99.90
10451;DHT22;5273;51.290;6.918;2023-08-06T12:51:50;16.40;99.90
10451;DHT22;5273;51.290;6.918;2023-08-06T12:54:18;16.40;99.90
10451;DHT22;5273;51.290;6.918;2023-08-06T12:56:47;16.20;99.90
10451;DHT22;5273;51.290;6.918;2023-08-06T12:59:14;16.40;99.90
10451;DHT22;5273;51.290;6.918;2023-08-06T13:01:42;16.50;99.90
10451;DHT22;5273;51.290;6.918;2023-08-06T13:04:09;16.50;99.90
10451;DHT22;5273;51.290;6.918;2023-08-06T13:06:36;16.50;99.90
10451;DHT22;5273;51.290;6.918;2023-08-06T13:09:03;16.60;99.90
10451;DHT22;5273;51.290;6.918;2023-08-06T13:11:31;16.60;99.90
10451;DHT22;5273;51.290;6.918;2023-08-06T13:14:04;16.70;99.90
10451;DHT22;5273;51.290;6.918;2023-08-06T13:16:31;16.60;99.90
10451;DHT22;5273;51.290;6.918;2023-08-06T13:18:58;16.70;99.90
10451;DHT22;5273;51.290;6.918;2023-08-06T13:21:33;16.70;99.90
10451;DHT22;5273;51.290;6.918;2023-08-06T13:24:00;16.70;99.90
10451;DHT22;5273;51.290;6.918;2023-08-06T13:26:28;16.80;99.90
10451;DHT22;5273;51.290;6.918;2023-08-06T13:28:55;16.80;99.90
10451;DHT22;5273;51.290;6.918;2023-08-06T13:31:23;16.80;99.90
10451;DHT22;5273;51.290;6.918;2023-08-06T13:33:50;16.80;99.90
10451;DHT22;5273;51.290;6.918;2023-08-06T13:36:16;16.70;99.90
10451;DHT22;5273;51.290;6.918;2023-08-06T13:38:43;16.60;99.90
10451;DHT22;5273;51.290;6.918;2023-08-06T13:41:10;16.60;99.90
10451;DHT22;5273;51.290;6.918;2023-08-06T13:43:38;16.60;99.90
10451;DHT22;5273;51.290;6.918;2023-08-06T13:46:05;16.60;99.90
10451;DHT22;5273;51.290;6.918;2023-08-06T13:48:33;16.60;99.90
10451;DHT22;5273;51.290;6.918;2023-08-06T13:50:59;16.60;99.90
10451;DHT22;5273;51.290;6.918;2023-08-06T13:53:26;16.60;99.90
10451;DHT22;5273;51.290;6.918;2023-08-06T13:55:55;16.60;99.90
10451;DHT22;5273;51.290;6.918;2023-08-06T13:58:22;16.70;99.90
10451;DHT22;5273;51.290;6.918;2023-08-06T14:00:49;16.70;99.90
10451;DHT22;5273;51.290;6.918;2023-08-06T14:03:18;16.80;99.90
10451;DHT22;5273;51.290;6.918;2023-08-06T14:05:46;16.80;99.90
10451;DHT22;5273;51.290;6.918;2023-08-06T14:08:13;16.80;99.90
10451;DHT22;5273;51.290;6.918;2023-08-06T14:10:40;16.90;99.90
10451;DHT22;5273;51.290;6.918;2023-08-06T14:13:07;16.90;99.90
10451;DHT22;5273;51.290;6.918;2023-08-06T14:15:34;16.90;99.90
10451;DHT22;5273;51.290;6.918;2023-08-06T14:18:01;16.90;99.90
10451;DHT22;5273;51.290;6.918;2023-08-06T14:20:28;17.00;99.90
10451;DHT22;5273;51.290;6.918;2023-08-06T14:22:57;17.00;99.90
10451;DHT22;5273;51.290;6.918;2023-08-06T14:25:24;17.10;99.90
10451;DHT22;5273;51.290;6.918;2023-08-06T14:27:51;17.10;99.90
10451;DHT22;5273;51.290;6.918;2023-08-06T14:30:18;17.10;99.90
10451;DHT22;5273;51.290;6.918;2023-08-06T14:32:45;17.10;99.90
10451;DHT22;5273;51.290;6.918;2023-08-06T14:35:12;17.20;99.90
10451;DHT22;5273;51.290;6.918;2023-08-06T14:37:39;17.20;99.90
10451;DHT22;5273;51.290;6.918;2023-08-06T14:40:09;16.10;99.90
10451;DHT22;5273;51.290;6.918;2023-08-06T14:42:36;17.30;99.90
10451;DHT22;5273;51.290;6.918;2023-08-06T14:45:03;17.30;99.90
10451;DHT22;5273;51.290;6.918;2023-08-06T14:47:30;17.10;99.90
10451;DHT22;5273;51.290;6.918;2023-08-06T14:49:57;17.30;99.90
10451;DHT22;5273;51.290;6.918;2023-08-06T14:52:24;17.30;99.90
10451;DHT22;5273;51.290;6.918;2023-08-06T14:54:51;17.30;99.90
10451;DHT22;5273;51.290;6.918;2023-08-06T14:57:22;17.40;99.90
10451;DHT22;5273;51.290;6.918;2023-08-06T14:59:53;17.50;99.90
10451;DHT22;5273;51.290;6.918;2023-08-06T15:02:20;17.60;99.90
10451;DHT22;5273;51.290;6.918;2023-08-06T15:04:46;17.70;99.90
10451;DHT22;5273;51.290;6.918;2023-08-06T15:07:13;17.70;99.90
10451;DHT22;5273;51.290;6.918;2023-08-06T15:09:40;17.80;99.90
10451;DHT22;5273;51.290;6.918;2023-08-06T15:12:07;17.90;99.90
10451;DHT22;5273;51.290;6.918;2023-08-06T15:14:35;17.90;99.90
10451;DHT22;5273;51.290;6.918;2023-08-06T15:17:02;17.80;99.90
10451;DHT22;5273;51.290;6.918;2023-08-06T15:19:29;17.80;99.90
10451;DHT22;5273;51.290;6.918;2023-08-06T15:21:56;17.80;99.90
10451;DHT22;5273;51.290;6.918;2023-08-06T15:24:23;17.60;99.90
10451;DHT22;5273;51.290;6.918;2023-08-06T15:26:50;17.70;99.90
10451;DHT22;5273;51.290;6.918;2023-08-06T15:29:16;17.70;99.90
10451;DHT22;5273;51.290;6.918;2023-08-06T15:31:45;17.70;99.90
10451;DHT22;5273;51.290;6.918;2023-08-06T15:34:11;17.60;99.90
10451;DHT22;5273;51.290;6.918;2023-08-06T15:36:38;17.80;99.90
10451;DHT22;5273;51.290;6.918;2023-08-06T15:39:05;17.60;99.90
10451;DHT22;5273;51.290;6.918;2023-08-06T15:41:32;17.70;99.90
10451;DHT22;5273;51.290;6.918;2023-08-06T15:43:59;17.70;99.90
10451;DHT22;5273;51.290;6.918;2023-08-06T15:46:25;17.80;99.90
10451;DHT22;5273;51.290;6.918;2023-08-06T15:48:53;17.80;99.90
10451;DHT22;5273;51.290;6.918;2023-08-06T15:51:20;17.80;99.90
10451;DHT22;5273;51.290;6.918;2023-08-06T15:53:47;17.80;99.90
10451;DHT22;5273;51.290;6.918;2023-08-06T15:56:14;17.20;99.90
10451;DHT22;5273;51.290;6.918;2023-08-06T15:58:41;17.70;99.90
10451;DHT22;5273;51.290;6.918;2023-08-06T16:01:07;17.70;99.90
10451;DHT22;5273;51.290;6.918;2023-08-06T16:03:34;17.60;99.90
10451;DHT22;5273;51.290;6.918;2023-08-06T16:06:04;17.60;99.90
10451;DHT22;5273;51.290;6.918;2023-08-06T16:08:31;17.50;99.90
10451;DHT22;5273;51.290;6.918;2023-08-06T16:10:58;17.50;99.90
10451;DHT22;5273;51.290;6.918;2023-08-06T16:13:25;17.40;99.90
10451;DHT22;5273;51.290;6.918;2023-08-06T16:15:51;17.30;99.90
10451;DHT22;5273;51.290;6.918;2023-08-06T16:18:18;17.20;99.90
10451;DHT22;5273;51.290;6.918;2023-08-06T16:20:45;17.20;99.90
10451;DHT22;5273;51.290;6.918;2023-08-06T16:23:14;17.10;99.90
10451;DHT22;5273;51.290;6.918;2023-08-06T16:25:41;17.00;99.90
10451;DHT22;5273;51.290;6.918;2023-08-06T16:28:13;17.10;99.90
10451;DHT22;5273;51.290;6.918;2023-08-06T16:30:43;17.00;99.90
10451;DHT22;5273;51.290;6.918;2023-08-06T16:33:11;17.00;99.90
10451;DHT22;5273;51.290;6.918;2023-08-06T16:35:38;16.90;99.90